Terminal Aerodrome Forecast
Issued by NWS

Current Version | Previous Version | Text Only | Print | Product List | Glossary On
Versions: 1 2 3 4 5 6 7 8 9 10 11 12 13 14 15
000
FTUS46 KOTX 261141
TAFCOE
TAF
KCOE 261141Z 2612/2712 17005KT P6SM BKN070 OVC080
     FM261500 19006KT P6SM SCT010 SCT050 BKN070
     FM262000 21009G17KT P6SM VCSH SCT040 BKN060 BKN120
     FM270300 18009KT P6SM BKN060 BKN150
     FM270900 18009KT P6SM OVC100
      AMD LTD TO CLD AND VIS=

USA.gov is the U.S. government's official web portal to all federal, state and local government web resources and services.